Time;durP1;ratioP1;P1;durP2;ratioP2;P2;SDS_P1;SDS_P2;PMS_P1;PMS_P2;Temp;Humidity;BMP_temperature;BMP_pressure;BME280_temperature;BME280_humidity;BME280_pressure;Samples;Min_cycle;Max_cycle;Signal;HPM_P1;HPM_P2
2022/12/29 00:00:16;;;;;;;7.43;4.35;;;;;;;9.86;55.92;100103.28;7391544;19;20079;-57
2022/12/29 00:02:42;;;;;;;7.18;4.28;;;;;;;10.05;55.37;100107.22;7392614;19;20035;-59
2022/12/29 00:05:08;;;;;;;8.32;4.10;;;;;;;9.93;55.69;100099.94;7393341;19;20003;-58
2022/12/29 00:07:34;;;;;;;7.78;4.50;;;;;;;10.21;54.83;100094.34;7391234;19;20022;-58
2022/12/29 00:10:00;;;;;;;7.25;4.05;;;;;;;10.17;55.00;100085.31;7393062;19;20019;-57
2022/12/29 00:15:36;;;;;;;6.53;3.88;;;;;;;10.13;55.31;100092.59;7391978;19;20002;-57
2022/12/29 00:17:55;;;;;;;7.88;4.15;;;;;;;10.31;54.63;100082.88;7392620;19;20431;-58
2022/12/29 00:37:01;;;;;;;7.90;4.55;;;;;;;10.42;54.77;100060.50;7392652;19;20034;-57
2022/12/29 00:44:55;;;;;;;7.90;4.78;;;;;;;10.54;54.59;100068.56;7392610;19;20345;-57
2022/12/29 00:47:21;;;;;;;8.32;4.90;;;;;;;10.58;54.82;100063.94;7390466;19;20010;-58
2022/12/29 00:49:47;;;;;;;9.38;5.65;;;;;;;10.37;55.78;100056.13;7390217;19;19999;-57
2022/12/29 00:52:13;;;;;;;9.80;5.70;;;;;;;10.63;54.90;100054.69;7388604;19;20015;-58
2022/12/29 00:54:40;;;;;;;9.00;5.88;;;;;;;10.55;54.77;100056.47;7391940;19;20034;-58
2022/12/29 00:57:09;;;;;;;10.18;5.03;;;;;;;10.59;55.01;100049.16;7392073;19;19994;-57
2022/12/29 00:59:36;;;;;;;9.20;6.07;;;;;;;10.42;55.22;100047.66;7390566;19;20058;-57
2022/12/29 01:02:02;;;;;;;8.85;6.05;;;;;;;10.26;56.18;100042.25;7392023;19;20003;-58
2022/12/29 01:04:28;;;;;;;11.77;5.70;;;;;;;10.43;55.98;100034.81;7390697;19;20002;-57
2022/12/29 01:06:54;;;;;;;9.73;5.90;;;;;;;10.30;56.16;100037.69;7391812;19;20022;-58
2022/12/29 01:12:06;;;;;;;7.95;5.70;;;;;;;10.55;55.37;100035.44;7390875;19;20006;-57
2022/12/29 01:14:32;;;;;;;9.10;6.05;;;;;;;10.61;55.40;100022.28;7391020;19;20026;-57
2022/12/29 01:16:58;;;;;;;8.13;5.47;;;;;;;10.69;55.00;100032.19;7389967;19;20010;-57
2022/12/29 01:19:24;;;;;;;8.50;5.68;;;;;;;10.56;55.17;100023.38;7390472;19;20001;-57
2022/12/29 01:21:50;;;;;;;9.13;5.53;;;;;;;10.60;55.34;100017.19;7394892;19;20030;-57
2022/12/29 01:24:17;;;;;;;7.95;5.32;;;;;;;10.59;55.22;100023.81;7390385;19;20361;-57
2022/12/29 01:26:43;;;;;;;7.47;4.95;;;;;;;10.68;55.02;100035.28;7388404;19;20031;-57
2022/12/29 01:29:10;;;;;;;8.00;5.03;;;;;;;10.83;54.66;100022.75;7391141;19;20003;-56
2022/12/29 01:31:36;;;;;;;9.00;4.85;;;;;;;10.87;54.55;100008.00;7390384;19;20358;-57
2022/12/29 01:34:03;;;;;;;8.27;4.93;;;;;;;10.53;55.54;100006.94;7389075;19;20029;-56
2022/12/29 01:36:29;;;;;;;7.80;4.60;;;;;;;10.41;55.70;100007.09;7390033;19;19994;-56
2022/12/29 01:38:56;;;;;;;5.97;4.28;;;;;;;10.52;55.50;100005.38;7387908;19;20391;-58
2022/12/29 01:41:22;;;;;;;6.93;4.55;;;;;;;10.59;55.15;99996.53;7390501;19;20009;-58
2022/12/29 01:43:53;;;;;;;6.22;4.30;;;;;;;10.45;55.65;99989.66;7388218;19;20015;-57
2022/12/29 01:46:48;;;;;;;6.47;4.60;;;;;;;10.56;55.15;99996.09;7391335;19;20070;-57
2022/12/29 01:49:19;;;;;;;7.70;4.60;;;;;;;10.66;55.06;99985.75;7390096;19;20341;-57
2022/12/29 01:51:52;;;;;;;7.38;4.93;;;;;;;10.69;54.94;100002.19;7390086;19;20086;-57
2022/12/29 01:54:30;;;;;;;8.23;4.38;;;;;;;10.82;54.63;99991.13;7390219;19;20087;-58
2022/12/29 01:57:00;;;;;;;5.93;4.00;;;;;;;10.79;54.80;99978.22;7390943;19;19999;-57
2022/12/29 01:59:31;;;;;;;7.63;4.40;;;;;;;10.80;54.88;99974.31;7386546;19;20029;-57
2022/12/29 02:01:57;;;;;;;8.30;4.20;;;;;;;10.83;54.70;99973.59;7387677;19;20003;-57
2022/12/29 02:04:24;;;;;;;5.97;4.32;;;;;;;10.77;54.61;99977.78;7388086;19;20014;-58
2022/12/29 02:06:58;;;;;;;8.40;4.30;;;;;;;10.87;54.76;99960.78;7390248;19;19991;-58
2022/12/29 02:09:23;;;;;;;8.33;4.40;;;;;;;10.78;54.68;99963.75;7393773;19;19999;-58
2022/12/29 02:11:50;;;;;;;6.40;4.50;;;;;;;10.79;54.88;99959.91;7392190;19;20248;-58
2022/12/29 02:14:16;;;;;;;8.07;4.63;;;;;;;10.93;54.49;99959.34;7391624;19;19994;-58
2022/12/29 02:17:06;;;;;;;7.35;4.43;;;;;;;10.71;54.69;99953.47;7399276;19;19995;-57
2022/12/29 02:20:09;;;;;;;6.90;4.30;;;;;;;10.84;54.48;99956.84;7398622;19;20937;-58
2022/12/29 02:23:00;;;;;;;6.30;4.22;;;;;;;10.77;54.78;99955.94;7399686;19;19995;-58
2022/12/29 02:25:47;;;;;;;6.97;4.40;;;;;;;10.71;54.68;99947.25;7396403;19;20103;-58
2022/12/29 02:28:27;;;;;;;6.47;4.22;;;;;;;10.93;54.28;99949.19;7400883;19;20066;-58
2022/12/29 02:31:21;;;;;;;8.07;4.90;;;;;;;10.77;54.63;99945.00;7400768;19;20075;-58
2022/12/29 02:33:50;;;;;;;6.67;4.27;;;;;;;10.74;54.69;99943.78;7397048;19;20009;-58
2022/12/29 02:36:36;;;;;;;5.63;3.92;;;;;;;10.89;54.39;99936.66;7401058;19;20002;-58
2022/12/29 02:39:05;;;;;;;6.90;4.18;;;;;;;10.61;55.16;99947.84;7397632;19;20490;-57
2022/12/29 02:42:17;;;;;;;6.88;4.28;;;;;;;10.84;54.66;99939.69;7398900;19;20010;-56
2022/12/29 02:44:49;;;;;;;6.95;4.50;;;;;;;10.97;54.09;99938.38;7392757;19;20009;-57
2022/12/29 02:47:18;;;;;;;6.13;4.30;;;;;;;11.06;54.08;99936.16;7395679;19;20479;-57
2022/12/29 02:49:44;;;;;;;6.80;3.92;;;;;;;11.01;54.32;99933.75;7396127;19;20424;-57
2022/12/29 02:52:21;;;;;;;6.13;4.32;;;;;;;10.80;54.65;99939.63;7395536;19;20002;-58
2022/12/29 02:54:53;;;;;;;5.97;4.25;;;;;;;10.94;54.42;99941.81;7396770;19;20007;-58
2022/12/29 02:57:22;;;;;;;6.57;4.15;;;;;;;10.91;54.49;99942.53;7396763;19;20069;-58
2022/12/29 02:59:59;;;;;;;6.65;4.38;;;;;;;11.13;53.74;99934.69;7395873;19;20054;-58
2022/12/29 03:03:06;;;;;;;6.57;4.43;;;;;;;11.15;53.69;99926.94;7395074;19;20003;-57
2022/12/29 03:05:34;;;;;;;6.95;4.63;;;;;;;10.99;54.23;99921.59;7395515;19;20054;-57
2022/12/29 03:08:27;;;;;;;6.18;4.40;;;;;;;10.95;54.01;99932.47;7396273;19;20010;-57
2022/12/29 03:16:59;;;;;;;6.03;3.97;;;;;;;11.14;53.54;99896.09;7395384;19;20087;-58
2022/12/29 03:19:36;;;;;;;9.95;4.13;;;;;;;11.08;53.68;99894.84;7392956;19;20014;-59
2022/12/29 03:22:28;;;;;;;4.97;4.00;;;;;;;10.88;54.59;99886.72;7395055;19;20372;-58
2022/12/29 03:25:05;;;;;;;6.35;4.05;;;;;;;10.94;54.31;99895.41;7394247;19;20373;-58
2022/12/29 03:27:44;;;;;;;7.13;3.65;;;;;;;11.04;54.21;99889.31;7394906;19;20011;-59
2022/12/29 03:30:11;;;;;;;4.45;3.05;;;;;;;10.74;54.92;99887.25;7395480;19;20028;-58
2022/12/29 03:32:47;;;;;;;4.68;2.80;;;;;;;10.81;54.84;99891.28;7393677;19;20007;-57
2022/12/29 03:35:16;;;;;;;3.83;2.47;;;;;;;10.97;54.23;99872.84;7394150;19;20003;-58
2022/12/29 03:37:51;;;;;;;4.07;2.50;;;;;;;11.15;53.94;99870.34;7394180;19;20024;-59
2022/12/29 03:40:21;;;;;;;4.07;2.00;;;;;;;11.02;53.98;99869.78;7389698;19;20090;-59
2022/12/29 03:42:47;;;;;;;3.05;2.30;;;;;;;11.16;53.78;99863.75;7393299;19;20074;-58
2022/12/29 03:45:13;;;;;;;3.83;2.00;;;;;;;11.07;54.31;99855.81;7394407;19;20514;-59
2022/12/29 03:47:39;;;;;;;4.15;2.10;;;;;;;11.06;54.18;99867.88;7394691;19;19995;-59
2022/12/29 03:50:08;;;;;;;2.88;2.00;;;;;;;10.86;55.01;99872.66;7395057;19;19999;-59
2022/12/29 03:52:34;;;;;;;4.60;2.60;;;;;;;11.03;54.49;99865.88;7392783;19;20015;-59
2022/12/29 03:55:00;;;;;;;2.30;2.00;;;;;;;11.02;54.96;99867.06;7392549;19;20058;-59
2022/12/29 03:57:26;;;;;;;3.80;2.60;;;;;;;10.88;55.72;99875.00;7394667;19;20455;-60
2022/12/29 03:59:51;;;;;;;4.50;2.58;;;;;;;11.06;55.09;99858.91;7392754;19;20475;-60
2022/12/29 04:02:17;;;;;;;3.53;2.40;;;;;;;10.98;55.63;99855.28;7392715;19;20007;-59
2022/12/29 04:04:43;;;;;;;2.88;2.40;;;;;;;10.98;55.93;99858.00;7393600;19;20030;-59
2022/12/29 04:07:09;;;;;;;3.10;2.45;;;;;;;10.93;56.05;99850.13;7393603;19;20499;-59
2022/12/29 04:09:34;;;;;;;3.15;2.35;;;;;;;10.88;56.25;99853.19;7394453;19;20077;-59
2022/12/29 04:12:00;;;;;;;4.53;2.50;;;;;;;10.98;56.29;99847.09;7392500;19;20529;-59
2022/12/29 04:14:26;;;;;;;3.22;2.53;;;;;;;11.01;56.44;99846.34;7393311;19;20029;-59
2022/12/29 04:16:51;;;;;;;4.22;2.60;;;;;;;10.69;57.04;99846.63;7393153;19;20003;-59
2022/12/29 04:19:17;;;;;;;5.53;2.83;;;;;;;10.71;57.17;99838.84;7392014;19;20003;-60
2022/12/29 04:21:43;;;;;;;5.10;2.80;;;;;;;10.91;56.72;99838.81;7392788;19;20011;-60
2022/12/29 04:24:09;;;;;;;4.10;2.72;;;;;;;11.04;56.18;99833.94;7392932;19;20006;-59
2022/12/29 04:26:34;;;;;;;4.32;2.90;;;;;;;11.02;56.59;99837.03;7389958;19;20006;-60
2022/12/29 04:29:00;;;;;;;3.65;2.75;;;;;;;10.90;56.87;99837.22;7391111;19;19998;-59
2022/12/29 04:31:26;;;;;;;4.63;3.00;;;;;;;10.68;57.30;99850.50;7391317;19;19998;-60
2022/12/29 04:33:51;;;;;;;5.47;3.20;;;;;;;10.70;57.48;99848.22;7391186;19;20444;-59
2022/12/29 04:36:17;;;;;;;5.15;2.90;;;;;;;10.84;57.15;99846.88;7393154;19;19998;-59
2022/12/29 04:38:43;;;;;;;4.07;2.85;;;;;;;10.70;57.39;99840.03;7390789;19;20002;-59
2022/12/29 04:41:09;;;;;;;4.95;2.95;;;;;;;10.81;56.91;99847.63;7392756;19;19994;-60
2022/12/29 04:43:34;;;;;;;4.88;3.05;;;;;;;11.00;56.33;99839.31;7390794;19;20070;-60
2022/12/29 04:46:00;;;;;;;4.60;2.67;;;;;;;11.15;55.67;99845.78;7391863;19;19998;-60
2022/12/29 04:48:26;;;;;;;5.18;2.95;;;;;;;11.01;56.29;99838.16;7393274;19;20054;-60
2022/12/29 04:50:52;;;;;;;5.65;2.80;;;;;;;11.03;56.01;99851.47;7392604;19;20001;-60
2022/12/29 04:53:18;;;;;;;5.43;2.88;;;;;;;10.88;56.51;99855.91;7390525;19;20498;-60
2022/12/29 04:55:44;;;;;;;7.72;2.70;;;;;;;11.00;56.16;99839.31;7393140;19;20014;-60
2022/12/29 04:58:10;;;;;;;3.88;2.40;;;;;;;10.63;57.01;99853.53;7390342;19;20453;-60
2022/12/29 05:00:35;;;;;;;3.25;2.50;;;;;;;11.05;55.67;99840.94;7392279;19;19998;-60
2022/12/29 05:03:01;;;;;;;6.07;2.50;;;;;;;11.23;55.05;99838.47;7390094;19;20066;-59
2022/12/29 05:05:27;;;;;;;4.28;2.50;;;;;;;11.15;55.26;99851.22;7392170;19;20388;-60
2022/12/29 05:07:52;;;;;;;4.97;2.30;;;;;;;11.06;55.14;99853.47;7391707;19;19994;-59
2022/12/29 05:10:18;;;;;;;3.60;2.10;;;;;;;11.05;55.42;99847.19;7392029;19;20015;-59
2022/12/29 05:12:44;;;;;;;4.45;2.35;;;;;;;11.17;55.07;99845.41;7390759;19;19998;-59
2022/12/29 05:15:11;;;;;;;3.88;2.03;;;;;;;11.14;55.01;99843.41;7391789;19;20006;-58
2022/12/29 05:17:43;;;;;;;4.07;2.45;;;;;;;11.07;55.55;99853.09;7391706;19;20002;-59
2022/12/29 05:20:09;;;;;;;4.22;2.30;;;;;;;11.26;54.75;99851.41;7392124;19;20026;-60
2022/12/29 05:22:35;;;;;;;4.13;2.40;;;;;;;11.00;55.93;99854.91;7388436;19;20070;-60
2022/12/29 05:25:01;;;;;;;4.63;2.50;;;;;;;10.89;56.33;99854.75;7391496;19;20023;-60
2022/12/29 05:27:27;;;;;;;3.50;1.98;;;;;;;10.90;56.59;99856.31;7389617;19;20010;-60
2022/12/29 05:29:53;;;;;;;4.00;2.28;;;;;;;10.91;56.41;99853.22;7391247;19;19995;-60
2022/12/29 05:32:19;;;;;;;4.93;2.10;;;;;;;10.90;56.57;99862.59;7389720;19;20498;-61
2022/12/29 05:34:45;;;;;;;2.50;1.88;;;;;;;10.95;56.60;99861.47;7391328;19;20016;-61
2022/12/29 05:37:10;;;;;;;2.85;1.60;;;;;;;10.85;56.57;99870.28;7389007;19;19999;-61
2022/12/29 05:39:43;;;;;;;3.00;1.30;;;;;;;11.02;56.15;99860.78;7390132;19;19995;-59
2022/12/29 05:42:09;;;;;;;1.80;1.20;;;;;;;11.18;55.57;99866.13;7390485;19;20020;-59
2022/12/29 05:44:34;;;;;;;2.97;1.20;;;;;;;11.21;55.46;99874.34;7388215;19;20005;-60
2022/12/29 05:47:00;;;;;;;3.53;1.25;;;;;;;11.19;55.26;99857.56;7391163;19;20677;-60
2022/12/29 05:49:26;;;;;;;1.98;1.00;;;;;;;11.11;55.47;99862.13;7391946;19;20078;-60
2022/12/29 05:51:51;;;;;;;2.92;1.30;;;;;;;11.05;55.82;99874.50;7396804;19;20006;-60
2022/12/29 05:54:17;;;;;;;3.08;1.20;;;;;;;11.02;55.80;99856.13;7397867;19;20014;-61
2022/12/29 05:56:43;;;;;;;3.95;1.30;;;;;;;11.12;55.60;99851.97;7398046;19;20005;-59
2022/12/29 05:59:09;;;;;;;3.78;1.45;;;;;;;11.18;55.55;99844.25;7396249;19;20523;-59
2022/12/29 06:01:34;;;;;;;2.67;1.27;;;;;;;11.19;55.39;99856.75;7395619;19;20053;-60
2022/12/29 06:04:00;;;;;;;4.07;1.40;;;;;;;11.25;55.26;99847.09;7397413;19;20002;-60
2022/12/29 06:06:26;;;;;;;4.00;1.85;;;;;;;11.02;55.84;99841.69;7398736;19;20357;-60
2022/12/29 06:08:52;;;;;;;4.53;1.92;;;;;;;11.03;55.67;99849.50;7397550;19;20355;-60
2022/12/29 06:11:17;;;;;;;3.17;2.10;;;;;;;11.11;55.50;99843.00;7397933;19;20353;-60
2022/12/29 06:13:43;;;;;;;2.78;2.10;;;;;;;11.03;55.90;99838.56;7392659;19;20003;-61
2022/12/29 06:16:09;;;;;;;3.25;2.10;;;;;;;11.01;55.70;99829.97;7397668;19;20003;-60
2022/12/29 06:18:35;;;;;;;4.85;2.50;;;;;;;11.09;55.54;99823.47;7395558;19;19999;-59
2022/12/29 06:21:02;;;;;;;2.72;1.95;;;;;;;10.63;57.16;99826.25;7397232;19;19998;-59
2022/12/29 06:23:28;;;;;;;4.30;2.13;;;;;;;11.02;56.00;99834.28;7394289;19;20031;-59
2022/12/29 06:25:54;;;;;;;5.45;2.20;;;;;;;11.04;56.00;99836.66;7394585;19;20468;-59
2022/12/29 06:28:20;;;;;;;4.15;1.98;;;;;;;10.83;56.73;99826.19;7397426;19;19994;-59
2022/12/29 06:30:47;;;;;;;4.78;2.00;;;;;;;11.11;55.82;99843.00;7397858;19;20003;-58
2022/12/29 06:33:13;;;;;;;3.47;1.92;;;;;;;11.20;55.60;99856.38;7394957;19;20002;-59
2022/12/29 06:35:39;;;;;;;4.75;2.40;;;;;;;11.22;55.84;99856.00;7398135;19;19990;-60
2022/12/29 06:38:05;;;;;;;5.70;2.35;;;;;;;11.19;56.03;99848.56;7396273;19;20002;-60
2022/12/29 06:40:31;;;;;;;5.45;2.20;;;;;;;11.22;55.93;99856.81;7396544;19;20058;-59
2022/12/29 06:42:57;;;;;;;4.97;1.80;;;;;;;11.26;55.72;99867.78;7394874;19;20024;-59
2022/12/29 06:45:24;;;;;;;5.30;1.98;;;;;;;11.24;55.67;99870.09;7396631;19;19999;-59
2022/12/29 06:47:50;;;;;;;6.22;2.22;;;;;;;11.13;55.93;99866.44;7396550;19;19998;-60
2022/12/29 06:50:15;;;;;;;5.32;2.20;;;;;;;11.14;56.21;99870.72;7396927;19;20025;-60
2022/12/29 06:52:41;;;;;;;4.45;2.03;;;;;;;11.16;56.09;99863.75;7394655;19;19998;-60
2022/12/29 06:55:07;;;;;;;5.18;2.30;;;;;;;11.11;56.16;99859.38;7396137;19;20026;-59
2022/12/29 06:57:33;;;;;;;3.80;2.00;;;;;;;11.10;55.98;99849.63;7395933;19;20007;-59
2022/12/29 06:59:59;;;;;;;3.35;1.77;;;;;;;11.11;56.12;99848.47;7395695;19;19999;-58
2022/12/29 07:02:25;;;;;;;3.65;1.63;;;;;;;10.98;55.70;99866.19;7394159;19;20532;-58
2022/12/29 07:04:52;;;;;;;4.82;1.73;;;;;;;11.04;55.72;99867.47;7396156;19;20070;-60
2022/12/29 07:07:19;;;;;;;2.22;1.40;;;;;;;11.06;55.11;99859.69;7395992;19;20001;-60
2022/12/29 07:09:45;;;;;;;3.80;1.58;;;;;;;10.79;55.97;99860.84;7394048;19;20052;-60
2022/12/29 07:12:11;;;;;;;4.25;1.52;;;;;;;10.74;55.96;99864.63;7395766;19;20013;-60
2022/12/29 07:14:36;;;;;;;4.90;1.67;;;;;;;10.85;55.75;99862.09;7393077;19;20074;-59
2022/12/29 07:17:05;;;;;;;4.30;1.60;;;;;;;10.82;55.91;99871.00;7395933;19;19994;-59
2022/12/29 07:19:31;;;;;;;3.58;1.60;;;;;;;10.78;55.61;99864.72;7393167;19;20006;-59
2022/12/29 07:21:57;;;;;;;5.55;1.85;;;;;;;10.81;55.78;99869.44;7395393;19;20018;-59
2022/12/29 07:24:22;;;;;;;3.95;1.80;;;;;;;10.65;56.12;99862.16;7394727;19;19995;-59
2022/12/29 07:26:48;;;;;;;4.45;1.90;;;;;;;10.53;56.16;99878.69;7393224;19;20010;-59
2022/12/29 07:29:14;;;;;;;3.67;1.70;;;;;;;10.33;56.76;99878.72;7395708;19;20017;-59
2022/12/29 07:31:39;;;;;;;6.07;2.00;;;;;;;10.42;56.25;99880.44;7394747;19;19999;-59
2022/12/29 07:34:05;;;;;;;3.53;1.50;;;;;;;10.57;55.75;99890.47;7394565;19;19995;-60
2022/12/29 07:36:31;;;;;;;4.00;1.45;;;;;;;10.67;55.32;99892.59;7394883;19;20011;-59
2022/12/29 07:38:56;;;;;;;6.25;2.63;;;;;;;10.55;55.51;99900.94;7393555;19;20010;-60
2022/12/29 07:41:22;;;;;;;4.95;1.75;;;;;;;10.21;56.31;99898.00;7395301;19;20027;-59
2022/12/29 07:43:51;;;;;;;5.78;1.48;;;;;;;10.25;56.23;99898.88;7391870;19;19995;-59
2022/12/29 07:46:16;;;;;;;4.35;1.40;;;;;;;10.44;55.66;99906.22;7394752;19;19999;-59
2022/12/29 07:48:42;;;;;;;3.58;1.20;;;;;;;10.57;55.24;99901.38;7394179;19;20490;-59
2022/12/29 07:51:08;;;;;;;4.32;1.58;;;;;;;10.59;55.42;99910.00;7394727;19;20481;-59
2022/12/29 07:53:33;;;;;;;5.78;1.40;;;;;;;10.70;55.04;99919.16;7391766;19;20003;-59
2022/12/29 07:55:59;;;;;;;3.30;1.15;;;;;;;10.56;55.52;99924.34;7393922;19;20329;-59
2022/12/29 07:58:25;;;;;;;3.30;1.40;;;;;;;10.76;54.75;99927.09;7393348;19;20007;-59
2022/12/29 08:00:56;;;;;;;4.35;1.30;;;;;;;10.77;54.69;99920.44;7394228;19;20022;-59
2022/12/29 08:03:24;;;;;;;5.85;1.17;;;;;;;10.59;54.84;99929.09;7391937;19;20040;-60
2022/12/29 08:05:50;;;;;;;5.88;1.20;;;;;;;10.78;54.21;99927.50;7394490;19;20026;-59
2022/12/29 08:08:16;;;;;;;7.78;1.20;;;;;;;10.65;54.36;99933.13;7394539;19;20007;-59
2022/12/29 08:10:42;;;;;;;5.45;1.30;;;;;;;10.64;54.25;99926.06;7392324;19;20019;-59
2022/12/29 08:13:08;;;;;;;8.90;1.85;;;;;;;10.52;54.32;99932.50;7389369;19;20010;-59
2022/12/29 08:15:34;;;;;;;5.35;1.20;;;;;;;10.58;54.36;99938.41;7393393;19;20340;-60
2022/12/29 08:18:00;;;;;;;6.10;1.48;;;;;;;10.69;53.45;99927.72;7391832;19;20010;-59
2022/12/29 08:20:26;;;;;;;6.97;1.25;;;;;;;10.66;53.19;99945.59;7393269;19;20320;-59
2022/12/29 08:22:52;;;;;;;6.93;1.25;;;;;;;10.48;53.51;99939.81;7391680;19;19999;-59
2022/12/29 08:25:19;;;;;;;6.57;1.30;;;;;;;10.72;53.08;99948.81;7392939;19;20001;-59
2022/12/29 08:27:45;;;;;;;4.35;1.05;;;;;;;10.69;53.09;99953.06;7389903;19;20002;-59
2022/12/29 08:30:11;;;;;;;7.93;1.30;;;;;;;10.83;52.52;99954.50;7393567;19;20017;-59
2022/12/29 08:32:37;;;;;;;8.18;1.52;;;;;;;10.54;53.15;99953.97;7391652;19;20007;-59
2022/12/29 08:35:02;;;;;;;6.47;1.52;;;;;;;10.60;53.18;99968.09;7391420;19;20080;-58
2022/12/29 08:37:28;;;;;;;8.98;1.38;;;;;;;10.67;52.45;99966.28;7391344;19;20009;-59
2022/12/29 08:39:54;;;;;;;10.68;1.73;;;;;;;10.50;52.66;99958.53;7390559;19;19999;-59
2022/12/29 08:42:20;;;;;;;7.20;1.42;;;;;;;10.43;53.17;99969.31;7391168;19;20006;-59
2022/12/29 08:44:45;;;;;;;9.13;1.20;;;;;;;10.28;53.35;99963.56;7392339;19;20107;-59
2022/12/29 08:47:11;;;;;;;10.25;1.27;;;;;;;10.42;53.04;99973.19;7391855;19;20005;-59
2022/12/29 08:49:37;;;;;;;3.47;1.25;;;;;;;10.55;52.55;99972.69;7390581;19;19999;-59
2022/12/29 08:52:03;;;;;;;5.28;1.23;;;;;;;10.60;52.55;99981.72;7392235;19;20006;-59
2022/12/29 08:54:29;;;;;;;7.63;1.42;;;;;;;10.73;52.17;99981.19;7390523;19;20006;-58
2022/12/29 08:56:55;;;;;;;3.70;1.20;;;;;;;10.65;52.32;99978.69;7392181;19;20009;-60
2022/12/29 08:59:21;;;;;;;8.63;1.75;;;;;;;10.73;52.22;99985.88;7390921;19;20003;-60
2022/12/29 09:01:55;;;;;;;6.90;1.40;;;;;;;10.92;51.36;99980.41;7390303;19;20039;-59
2022/12/29 09:04:23;;;;;;;6.82;1.48;;;;;;;10.97;51.33;99987.50;7391677;19;20460;-60
2022/12/29 09:06:49;;;;;;;7.60;1.50;;;;;;;10.94;51.50;99971.84;7392190;19;19995;-58
2022/12/29 09:09:14;;;;;;;5.03;1.42;;;;;;;10.51;52.07;99987.41;7391655;19;20010;-59
2022/12/29 09:11:41;;;;;;;9.40;1.98;;;;;;;10.37;52.61;99980.53;7391719;19;20002;-59
2022/12/29 09:14:07;;;;;;;9.60;1.60;;;;;;;10.58;51.49;99984.81;7391376;19;20006;-58
2022/12/29 09:16:33;;;;;;;8.85;2.45;;;;;;;10.87;51.33;100004.47;7391961;19;20006;-58
2022/12/29 09:19:00;;;;;;;6.53;1.20;;;;;;;10.89;50.96;100008.44;7390744;19;19998;-59
2022/12/29 09:21:25;;;;;;;8.57;1.88;;;;;;;10.99;50.69;100011.69;7391726;19;20054;-58
2022/12/29 09:23:51;;;;;;;8.35;1.50;;;;;;;10.96;50.73;100013.22;7390208;19;20015;-58
2022/12/29 09:26:23;;;;;;;8.95;1.83;;;;;;;10.93;50.57;100017.47;7390594;19;20010;-59
2022/12/29 09:28:56;;;;;;;5.68;1.30;;;;;;;10.88;50.55;100008.78;7391622;19;20025;-60
2022/12/29 09:31:22;;;;;;;6.90;1.40;;;;;;;11.00;50.60;100005.09;7389307;19;20006;-60
2022/12/29 09:33:48;;;;;;;8.70;1.38;;;;;;;10.86;50.58;100002.91;7388430;19;20024;-59
2022/12/29 09:36:13;;;;;;;6.80;1.38;;;;;;;10.97;50.34;99998.44;7390610;19;20002;-58
2022/12/29 09:38:39;;;;;;;8.45;1.75;;;;;;;11.17;49.38;100001.09;7390076;19;20030;-58
2022/12/29 09:41:24;;;;;;;6.18;1.55;;;;;;;11.04;48.88;99998.53;7390705;19;20046;-60
2022/12/29 09:44:04;;;;;;;10.57;2.30;;;;;;;11.00;49.72;100003.16;7387006;19;20006;-60
2022/12/29 09:46:36;;;;;;;8.85;1.90;;;;;;;11.04;49.63;100000.50;7391332;19;20002;-59
2022/12/29 09:49:08;;;;;;;7.43;1.58;;;;;;;10.90;49.29;99999.09;7391790;19;20002;-60
2022/12/29 09:51:37;;;;;;;6.75;1.50;;;;;;;11.10;49.47;100016.22;7390134;19;20415;-58
2022/12/29 09:54:45;;;;;;;9.48;1.70;;;;;;;11.18;48.56;99994.47;7390768;19;20003;-59
2022/12/29 09:57:20;;;;;;;8.20;2.08;;;;;;;10.99;48.93;100022.63;7389579;19;19999;-59
2022/12/29 09:59:50;;;;;;;11.60;1.98;;;;;;;11.04;48.92;100020.41;7387859;19;19991;-58
2022/12/29 10:02:29;;;;;;;8.60;1.85;;;;;;;11.16;48.71;100015.91;7389631;19;20010;-60
2022/12/29 10:04:55;;;;;;;10.48;2.33;;;;;;;11.17;49.03;100007.34;7390316;19;20007;-60
2022/12/29 10:07:55;;;;;;;10.90;2.20;;;;;;;10.91;49.20;100013.53;7389782;19;20467;-59
2022/12/29 10:10:38;;;;;;;7.50;1.90;;;;;;;11.01;48.98;100004.72;7390577;19;20007;-60
2022/12/29 10:13:33;;;;;;;8.85;2.10;;;;;;;10.90;49.12;99998.28;7388368;19;20009;-59
2022/12/29 10:16:34;;;;;;;10.30;2.10;;;;;;;10.84;49.17;99992.34;7390081;19;20026;-59
2022/12/29 10:19:27;;;;;;;8.70;1.55;;;;;;;10.99;49.13;99996.13;7388644;19;20026;-59
2022/12/29 10:22:30;;;;;;;11.38;1.98;;;;;;;11.05;48.38;99994.66;7389423;19;19998;-59
2022/12/29 10:24:56;;;;;;;13.35;2.70;;;;;;;11.30;48.47;99997.00;7390245;19;20009;-59
2022/12/29 10:27:23;;;;;;;5.47;1.30;;;;;;;10.85;48.75;100006.78;7387888;19;20007;-58
2022/12/29 10:29:55;;;;;;;7.38;1.10;;;;;;;11.24;48.04;100001.22;7390030;19;20006;-59
2022/12/29 10:32:31;;;;;;;6.25;1.33;;;;;;;11.26;47.17;99998.91;7388392;19;20468;-58
2022/12/29 10:35:11;;;;;;;4.13;0.80;;;;;;;10.88;47.44;100011.53;7388801;19;20463;-58
2022/12/29 10:38:01;;;;;;;3.00;0.80;;;;;;;11.02;46.67;100010.97;7397048;19;19995;-58
2022/12/29 10:40:38;;;;;;;3.72;0.85;;;;;;;11.13;47.43;100016.63;7397203;19;19997;-58
2022/12/29 10:43:33;;;;;;;4.68;1.10;;;;;;;11.13;47.32;100011.97;7394063;19;20035;-59
2022/12/29 10:46:07;;;;;;;3.75;0.93;;;;;;;11.21;47.27;100023.81;7396894;19;20119;-58
2022/12/29 10:48:34;;;;;;;2.58;1.00;;;;;;;11.28;47.67;100021.19;7396522;19;20005;-59
2022/12/29 10:51:08;;;;;;;4.35;1.33;;;;;;;11.29;47.84;100022.78;7396501;19;19998;-60
2022/12/29 10:53:46;;;;;;;3.22;1.05;;;;;;;11.14;48.07;100019.00;7394120;19;20003;-60
2022/12/29 10:56:32;;;;;;;7.18;1.10;;;;;;;11.04;48.56;100017.66;7396281;19;20105;-59
2022/12/29 10:59:04;;;;;;;3.17;0.68;;;;;;;11.03;49.15;100031.69;7394929;19;19998;-59
2022/12/29 11:01:39;;;;;;;5.30;1.05;;;;;;;10.84;49.40;100027.06;7395648;19;20030;-59
2022/12/29 11:04:27;;;;;;;4.43;1.10;;;;;;;10.78;49.92;100028.50;7395373;19;20006;-59
2022/12/29 11:06:52;;;;;;;7.13;1.40;;;;;;;10.96;49.25;100020.63;7396233;19;19999;-59
2022/12/29 11:09:28;;;;;;;4.05;0.88;;;;;;;10.98;49.37;100021.84;7395702;19;19995;-59
2022/12/29 11:11:53;;;;;;;6.88;1.58;;;;;;;10.98;49.55;100010.13;7394959;19;20103;-58
2022/12/29 11:14:26;;;;;;;8.85;1.60;;;;;;;11.08;49.49;100015.78;7395048;19;19999;-58
2022/12/29 11:17:00;;;;;;;8.23;1.80;;;;;;;11.10;49.36;100016.22;7395629;19;20006;-58
2022/12/29 11:19:31;;;;;;;8.05;1.98;;;;;;;11.08;49.44;100013.03;7393744;19;19995;-58
2022/12/29 11:22:25;;;;;;;12.00;1.92;;;;;;;10.96;49.22;100010.50;7394593;19;20006;-58
2022/12/29 11:24:52;;;;;;;8.02;2.03;;;;;;;11.13;49.19;100003.75;7395811;19;19991;-59
2022/12/29 11:27:22;;;;;;;6.32;1.73;;;;;;;10.95;49.33;100011.63;7393880;19;20018;-59
2022/12/29 11:29:50;;;;;;;6.82;1.67;;;;;;;11.03;48.97;100002.41;7393627;19;20010;-59
2022/12/29 11:32:24;;;;;;;8.45;1.70;;;;;;;11.02;48.52;100000.88;7392417;19;20019;-59
2022/12/29 11:34:50;;;;;;;7.65;2.10;;;;;;;10.95;49.13;99992.53;7395667;19;20005;-60
2022/12/29 11:37:44;;;;;;;8.98;1.92;;;;;;;11.07;48.46;99992.38;7393676;19;20002;-60
2022/12/29 11:40:20;;;;;;;10.38;1.98;;;;;;;11.20;48.07;99983.97;7392983;19;20028;-60
2022/12/29 11:42:53;;;;;;;10.25;1.70;;;;;;;11.29;47.58;99993.50;7390397;19;20455;-60
2022/12/29 11:45:25;;;;;;;8.85;1.75;;;;;;;11.26;47.84;100009.84;7395036;19;20007;-60
2022/12/29 11:47:58;;;;;;;10.23;1.60;;;;;;;11.30;47.61;99994.28;7390116;19;20006;-60
2022/12/29 11:50:30;;;;;;;12.27;2.30;;;;;;;11.13;48.14;100001.03;7394837;19;20010;-60
2022/12/29 11:53:15;;;;;;;11.65;3.47;;;;;;;11.32;47.11;100002.88;7392656;19;20002;-59
2022/12/29 11:55:51;;;;;;;9.23;1.65;;;;;;;10.96;47.77;100002.31;7394960;19;20014;-59
2022/12/29 11:58:17;;;;;;;8.75;1.52;;;;;;;11.38;47.25;100006.91;7392102;19;20006;-59
2022/12/29 12:00:45;;;;;;;9.48;1.60;;;;;;;11.21;47.27;99996.50;7392927;19;20039;-59
2022/12/29 12:03:20;;;;;;;11.18;2.03;;;;;;;11.41;46.91;100000.72;7390052;19;20011;-59
2022/12/29 12:05:53;;;;;;;7.95;1.70;;;;;;;11.39;46.55;100008.50;7392966;19;20003;-60
2022/12/29 12:08:43;;;;;;;8.18;1.77;;;;;;;11.19;46.18;100010.50;7393472;19;20002;-60
2022/12/29 12:11:36;;;;;;;8.50;1.52;;;;;;;11.10;46.64;100007.22;7392450;19;20074;-60
2022/12/29 12:14:17;;;;;;;8.27;1.63;;;;;;;11.08;46.51;100026.69;7392375;19;20034;-59
2022/12/29 12:16:50;;;;;;;6.55;1.23;;;;;;;11.38;46.72;100006.91;7393547;19;20005;-59
2022/12/29 12:19:54;;;;;;;8.68;1.40;;;;;;;11.51;45.66;100012.19;7392502;19;20078;-59